sensor_id;sensor_type;location;lat;lon;timestamp;P1;durP1;ratioP1;P2;durP2;ratioP2
58528;SDS011;44322;52.968;5.816;2022-12-29T00:01:39;6.40;;;5.80;;
58528;SDS011;44322;52.968;5.816;2022-12-29T00:04:05;6.30;;;5.65;;
58528;SDS011;44322;52.968;5.816;2022-12-29T00:06:31;5.97;;;5.38;;
58528;SDS011;44322;52.968;5.816;2022-12-29T00:08:57;6.15;;;5.53;;
58528;SDS011;44322;52.968;5.816;2022-12-29T00:11:24;6.20;;;5.60;;
58528;SDS011;44322;52.968;5.816;2022-12-29T00:13:53;7.72;;;6.00;;
58528;SDS011;44322;52.968;5.816;2022-12-29T00:16:40;5.70;;;5.20;;
58528;SDS011;44322;52.968;5.816;2022-12-29T00:21:31;6.07;;;5.47;;
58528;SDS011;44322;52.968;5.816;2022-12-29T00:24:17;6.05;;;5.35;;
58528;SDS011;44322;52.968;5.816;2022-12-29T00:29:47;6.32;;;5.50;;
58528;SDS011;44322;52.968;5.816;2022-12-29T00:32:31;6.32;;;5.10;;
58528;SDS011;44322;52.968;5.816;2022-12-29T00:35:22;6.25;;;5.53;;
58528;SDS011;44322;52.968;5.816;2022-12-29T00:38:01;6.13;;;5.53;;
58528;SDS011;44322;52.968;5.816;2022-12-29T00:40:48;6.47;;;5.10;;
58528;SDS011;44322;52.968;5.816;2022-12-29T00:43:32;5.60;;;5.00;;
58528;SDS011;44322;52.968;5.816;2022-12-29T00:46:16;5.82;;;5.00;;
58528;SDS011;44322;52.968;5.816;2022-12-29T00:48:42;5.47;;;4.78;;
58528;SDS011;44322;52.968;5.816;2022-12-29T00:51:26;5.13;;;4.72;;
58528;SDS011;44322;52.968;5.816;2022-12-29T00:53:51;5.88;;;5.28;;
58528;SDS011;44322;52.968;5.816;2022-12-29T00:56:17;5.72;;;4.88;;
58528;SDS011;44322;52.968;5.816;2022-12-29T00:58:43;6.60;;;5.05;;
58528;SDS011;44322;52.968;5.816;2022-12-29T01:01:08;6.47;;;4.90;;
58528;SDS011;44322;52.968;5.816;2022-12-29T01:03:34;5.07;;;4.57;;
58528;SDS011;44322;52.968;5.816;2022-12-29T01:06:02;5.18;;;4.68;;
58528;SDS011;44322;52.968;5.816;2022-12-29T01:08:28;5.00;;;4.25;;
58528;SDS011;44322;52.968;5.816;2022-12-29T01:10:58;5.57;;;4.63;;
58528;SDS011;44322;52.968;5.816;2022-12-29T01:13:33;5.50;;;4.97;;
58528;SDS011;44322;52.968;5.816;2022-12-29T01:16:00;6.70;;;4.68;;
58528;SDS011;44322;52.968;5.816;2022-12-29T01:18:25;5.30;;;4.75;;
58528;SDS011;44322;52.968;5.816;2022-12-29T01:20:57;6.13;;;4.97;;
58528;SDS011;44322;52.968;5.816;2022-12-29T01:23:26;6.05;;;4.90;;
58528;SDS011;44322;52.968;5.816;2022-12-29T01:25:52;5.57;;;5.00;;
58528;SDS011;44322;52.968;5.816;2022-12-29T01:28:18;6.32;;;4.88;;
58528;SDS011;44322;52.968;5.816;2022-12-29T01:30:43;5.30;;;4.75;;
58528;SDS011;44322;52.968;5.816;2022-12-29T01:33:12;5.22;;;4.43;;
58528;SDS011;44322;52.968;5.816;2022-12-29T01:35:38;5.78;;;4.85;;
58528;SDS011;44322;52.968;5.816;2022-12-29T01:38:04;10.48;;;5.15;;
58528;SDS011;44322;52.968;5.816;2022-12-29T01:40:33;5.03;;;4.20;;
58528;SDS011;44322;52.968;5.816;2022-12-29T01:43:00;4.72;;;4.13;;
58528;SDS011;44322;52.968;5.816;2022-12-29T01:45:25;5.38;;;4.40;;
58528;SDS011;44322;52.968;5.816;2022-12-29T01:47:55;6.40;;;4.60;;
58528;SDS011;44322;52.968;5.816;2022-12-29T01:50:28;5.35;;;4.30;;
58528;SDS011;44322;52.968;5.816;2022-12-29T01:53:02;5.07;;;4.10;;
58528;SDS011;44322;52.968;5.816;2022-12-29T01:55:31;5.47;;;3.70;;
58528;SDS011;44322;52.968;5.816;2022-12-29T01:57:59;4.10;;;3.42;;
58528;SDS011;44322;52.968;5.816;2022-12-29T02:00:29;5.68;;;3.60;;
58528;SDS011;44322;52.968;5.816;2022-12-29T02:02:55;5.70;;;2.97;;
58528;SDS011;44322;52.968;5.816;2022-12-29T02:07:59;5.07;;;3.00;;
58528;SDS011;44322;52.968;5.816;2022-12-29T02:10:26;4.70;;;2.80;;
58528;SDS011;44322;52.968;5.816;2022-12-29T02:12:54;4.22;;;2.90;;
58528;SDS011;44322;52.968;5.816;2022-12-29T02:15:25;3.30;;;2.75;;
58528;SDS011;44322;52.968;5.816;2022-12-29T02:18:15;4.97;;;3.05;;
58528;SDS011;44322;52.968;5.816;2022-12-29T02:23:30;3.28;;;2.45;;
58528;SDS011;44322;52.968;5.816;2022-12-29T02:40:28;4.07;;;2.05;;
58528;SDS011;44322;52.968;5.816;2022-12-29T02:46:00;4.47;;;2.55;;
58528;SDS011;44322;52.968;5.816;2022-12-29T02:48:58;3.80;;;2.45;;
58528;SDS011;44322;52.968;5.816;2022-12-29T02:51:53;3.08;;;2.30;;
58528;SDS011;44322;52.968;5.816;2022-12-29T02:54:23;2.88;;;2.40;;
58528;SDS011;44322;52.968;5.816;2022-12-29T02:57:12;3.95;;;2.30;;
58528;SDS011;44322;52.968;5.816;2022-12-29T02:59:48;4.93;;;2.13;;
58528;SDS011;44322;52.968;5.816;2022-12-29T03:02:23;3.55;;;2.33;;
58528;SDS011;44322;52.968;5.816;2022-12-29T03:13:11;2.97;;;1.92;;
58528;SDS011;44322;52.968;5.816;2022-12-29T03:18:36;3.42;;;1.63;;
58528;SDS011;44322;52.968;5.816;2022-12-29T03:21:08;4.75;;;1.70;;
58528;SDS011;44322;52.968;5.816;2022-12-29T03:23:42;4.15;;;1.90;;
58528;SDS011;44322;52.968;5.816;2022-12-29T03:26:11;2.92;;;2.03;;
58528;SDS011;44322;52.968;5.816;2022-12-29T03:28:39;4.80;;;2.42;;
58528;SDS011;44322;52.968;5.816;2022-12-29T03:31:14;3.85;;;2.22;;
58528;SDS011;44322;52.968;5.816;2022-12-29T03:33:40;4.97;;;2.15;;
58528;SDS011;44322;52.968;5.816;2022-12-29T03:36:07;3.25;;;2.17;;
58528;SDS011;44322;52.968;5.816;2022-12-29T03:38:46;4.82;;;2.38;;
58528;SDS011;44322;52.968;5.816;2022-12-29T03:41:17;6.35;;;1.90;;
58528;SDS011;44322;52.968;5.816;2022-12-29T03:43:46;6.30;;;1.92;;
58528;SDS011;44322;52.968;5.816;2022-12-29T03:46:11;3.83;;;1.80;;
58528;SDS011;44322;52.968;5.816;2022-12-29T03:51:05;6.85;;;1.45;;
58528;SDS011;44322;52.968;5.816;2022-12-29T03:53:31;4.55;;;1.60;;
58528;SDS011;44322;52.968;5.816;2022-12-29T03:55:57;7.28;;;2.00;;
58528;SDS011;44322;52.968;5.816;2022-12-29T03:58:22;4.53;;;1.60;;
58528;SDS011;44322;52.968;5.816;2022-12-29T04:00:56;4.28;;;1.17;;
58528;SDS011;44322;52.968;5.816;2022-12-29T04:03:22;4.47;;;1.23;;
58528;SDS011;44322;52.968;5.816;2022-12-29T04:05:49;6.47;;;1.50;;
58528;SDS011;44322;52.968;5.816;2022-12-29T04:08:15;6.60;;;1.63;;
58528;SDS011;44322;52.968;5.816;2022-12-29T04:10:41;5.30;;;1.15;;
58528;SDS011;44322;52.968;5.816;2022-12-29T04:13:07;5.55;;;1.73;;
58528;SDS011;44322;52.968;5.816;2022-12-29T04:15:33;5.18;;;1.30;;
58528;SDS011;44322;52.968;5.816;2022-12-29T04:18:00;5.15;;;1.27;;
58528;SDS011;44322;52.968;5.816;2022-12-29T04:20:27;6.18;;;1.45;;
58528;SDS011;44322;52.968;5.816;2022-12-29T04:23:11;5.88;;;1.23;;
58528;SDS011;44322;52.968;5.816;2022-12-29T04:25:37;7.43;;;1.40;;
58528;SDS011;44322;52.968;5.816;2022-12-29T04:28:02;5.25;;;1.27;;
58528;SDS011;44322;52.968;5.816;2022-12-29T04:31:04;5.63;;;1.40;;
58528;SDS011;44322;52.968;5.816;2022-12-29T04:33:34;4.47;;;1.23;;
58528;SDS011;44322;52.968;5.816;2022-12-29T04:36:00;5.50;;;1.27;;
58528;SDS011;44322;52.968;5.816;2022-12-29T04:38:27;4.55;;;1.13;;
58528;SDS011;44322;52.968;5.816;2022-12-29T04:40:53;5.68;;;1.42;;
58528;SDS011;44322;52.968;5.816;2022-12-29T04:43:21;6.63;;;1.30;;
58528;SDS011;44322;52.968;5.816;2022-12-29T04:49:08;6.35;;;1.38;;
58528;SDS011;44322;52.968;5.816;2022-12-29T04:51:52;7.13;;;1.50;;
58528;SDS011;44322;52.968;5.816;2022-12-29T04:54:18;7.53;;;1.67;;
58528;SDS011;44322;52.968;5.816;2022-12-29T04:56:48;8.38;;;1.48;;
58528;SDS011;44322;52.968;5.816;2022-12-29T04:59:15;9.27;;;2.10;;
58528;SDS011;44322;52.968;5.816;2022-12-29T05:01:43;11.18;;;1.70;;
58528;SDS011;44322;52.968;5.816;2022-12-29T05:04:09;7.63;;;1.95;;
58528;SDS011;44322;52.968;5.816;2022-12-29T05:06:36;8.43;;;2.00;;
58528;SDS011;44322;52.968;5.816;2022-12-29T05:09:02;9.93;;;2.03;;
58528;SDS011;44322;52.968;5.816;2022-12-29T05:11:28;9.65;;;1.50;;
58528;SDS011;44322;52.968;5.816;2022-12-29T05:13:54;9.32;;;2.08;;
58528;SDS011;44322;52.968;5.816;2022-12-29T05:16:20;10.07;;;2.10;;
58528;SDS011;44322;52.968;5.816;2022-12-29T05:18:46;12.02;;;2.60;;
58528;SDS011;44322;52.968;5.816;2022-12-29T05:21:13;9.88;;;2.13;;
58528;SDS011;44322;52.968;5.816;2022-12-29T05:23:40;14.77;;;2.40;;
58528;SDS011;44322;52.968;5.816;2022-12-29T05:26:06;12.98;;;2.40;;
58528;SDS011;44322;52.968;5.816;2022-12-29T05:28:44;9.20;;;1.85;;
58528;SDS011;44322;52.968;5.816;2022-12-29T05:31:12;12.55;;;2.60;;
58528;SDS011;44322;52.968;5.816;2022-12-29T05:33:38;9.48;;;2.00;;
58528;SDS011;44322;52.968;5.816;2022-12-29T05:36:05;9.52;;;1.80;;
58528;SDS011;44322;52.968;5.816;2022-12-29T05:38:32;9.73;;;2.03;;
58528;SDS011;44322;52.968;5.816;2022-12-29T05:40:59;9.10;;;1.70;;
58528;SDS011;44322;52.968;5.816;2022-12-29T05:43:43;13.02;;;2.20;;
58528;SDS011;44322;52.968;5.816;2022-12-29T05:46:27;11.48;;;2.00;;
58528;SDS011;44322;52.968;5.816;2022-12-29T05:49:13;9.50;;;1.92;;
58528;SDS011;44322;52.968;5.816;2022-12-29T05:54:17;13.77;;;2.00;;
58528;SDS011;44322;52.968;5.816;2022-12-29T05:56:42;12.45;;;2.28;;
58528;SDS011;44322;52.968;5.816;2022-12-29T05:59:08;11.35;;;2.60;;
58528;SDS011;44322;52.968;5.816;2022-12-29T06:01:34;7.78;;;1.80;;
58528;SDS011;44322;52.968;5.816;2022-12-29T06:03:59;14.80;;;2.47;;
58528;SDS011;44322;52.968;5.816;2022-12-29T06:06:25;12.02;;;2.83;;
58528;SDS011;44322;52.968;5.816;2022-12-29T06:08:52;11.43;;;2.70;;
58528;SDS011;44322;52.968;5.816;2022-12-29T06:11:19;10.40;;;1.85;;
58528;SDS011;44322;52.968;5.816;2022-12-29T06:13:50;14.65;;;2.35;;
58528;SDS011;44322;52.968;5.816;2022-12-29T06:16:16;14.77;;;2.42;;
58528;SDS011;44322;52.968;5.816;2022-12-29T06:18:43;13.45;;;2.70;;
58528;SDS011;44322;52.968;5.816;2022-12-29T06:21:09;15.15;;;2.60;;
58528;SDS011;44322;52.968;5.816;2022-12-29T06:23:35;13.27;;;2.50;;
58528;SDS011;44322;52.968;5.816;2022-12-29T06:26:00;12.55;;;2.40;;
58528;SDS011;44322;52.968;5.816;2022-12-29T06:28:26;15.93;;;2.60;;
58528;SDS011;44322;52.968;5.816;2022-12-29T06:30:52;10.32;;;2.47;;
58528;SDS011;44322;52.968;5.816;2022-12-29T06:33:17;14.55;;;2.40;;
58528;SDS011;44322;52.968;5.816;2022-12-29T06:35:43;17.58;;;4.10;;
58528;SDS011;44322;52.968;5.816;2022-12-29T06:38:10;18.10;;;2.95;;
58528;SDS011;44322;52.968;5.816;2022-12-29T06:40:36;13.00;;;2.60;;
58528;SDS011;44322;52.968;5.816;2022-12-29T06:43:20;15.18;;;2.70;;
58528;SDS011;44322;52.968;5.816;2022-12-29T06:46:02;14.15;;;2.53;;
58528;SDS011;44322;52.968;5.816;2022-12-29T06:48:28;16.85;;;2.88;;
58528;SDS011;44322;52.968;5.816;2022-12-29T06:50:54;10.88;;;2.50;;
58528;SDS011;44322;52.968;5.816;2022-12-29T06:53:19;14.15;;;2.90;;
58528;SDS011;44322;52.968;5.816;2022-12-29T06:55:45;13.27;;;2.53;;
58528;SDS011;44322;52.968;5.816;2022-12-29T06:58:10;12.85;;;2.80;;
58528;SDS011;44322;52.968;5.816;2022-12-29T07:00:36;11.35;;;2.65;;
58528;SDS011;44322;52.968;5.816;2022-12-29T07:03:01;16.17;;;2.55;;
58528;SDS011;44322;52.968;5.816;2022-12-29T07:05:27;14.00;;;2.45;;
58528;SDS011;44322;52.968;5.816;2022-12-29T07:07:53;12.13;;;2.55;;
58528;SDS011;44322;52.968;5.816;2022-12-29T07:10:19;13.20;;;2.70;;
58528;SDS011;44322;52.968;5.816;2022-12-29T07:12:45;16.25;;;2.90;;
58528;SDS011;44322;52.968;5.816;2022-12-29T07:15:13;10.95;;;2.17;;
58528;SDS011;44322;52.968;5.816;2022-12-29T07:17:39;10.73;;;2.65;;
58528;SDS011;44322;52.968;5.816;2022-12-29T07:20:05;12.45;;;2.15;;
58528;SDS011;44322;52.968;5.816;2022-12-29T07:22:32;11.75;;;2.33;;
58528;SDS011;44322;52.968;5.816;2022-12-29T07:24:57;12.88;;;2.40;;
58528;SDS011;44322;52.968;5.816;2022-12-29T07:27:23;13.18;;;2.80;;
58528;SDS011;44322;52.968;5.816;2022-12-29T07:29:48;12.82;;;3.25;;
58528;SDS011;44322;52.968;5.816;2022-12-29T07:32:14;12.75;;;2.63;;
58528;SDS011;44322;52.968;5.816;2022-12-29T07:34:40;11.52;;;2.70;;
58528;SDS011;44322;52.968;5.816;2022-12-29T07:37:05;12.05;;;2.70;;
58528;SDS011;44322;52.968;5.816;2022-12-29T07:39:31;13.57;;;3.05;;
58528;SDS011;44322;52.968;5.816;2022-12-29T07:41:57;10.90;;;2.55;;
58528;SDS011;44322;52.968;5.816;2022-12-29T07:44:27;11.83;;;2.77;;
58528;SDS011;44322;52.968;5.816;2022-12-29T07:47:13;14.50;;;2.60;;
58528;SDS011;44322;52.968;5.816;2022-12-29T07:49:39;17.17;;;3.35;;
58528;SDS011;44322;52.968;5.816;2022-12-29T07:52:04;14.43;;;2.78;;
58528;SDS011;44322;52.968;5.816;2022-12-29T07:54:30;13.70;;;2.90;;
58528;SDS011;44322;52.968;5.816;2022-12-29T07:56:56;16.25;;;3.03;;
58528;SDS011;44322;52.968;5.816;2022-12-29T07:59:22;12.13;;;2.75;;
58528;SDS011;44322;52.968;5.816;2022-12-29T08:01:48;12.43;;;2.72;;
58528;SDS011;44322;52.968;5.816;2022-12-29T08:04:14;17.15;;;2.90;;
58528;SDS011;44322;52.968;5.816;2022-12-29T08:06:43;15.65;;;3.35;;
58528;SDS011;44322;52.968;5.816;2022-12-29T08:09:10;16.77;;;2.80;;
58528;SDS011;44322;52.968;5.816;2022-12-29T08:11:36;17.92;;;3.50;;
58528;SDS011;44322;52.968;5.816;2022-12-29T08:14:02;17.77;;;2.72;;
58528;SDS011;44322;52.968;5.816;2022-12-29T08:16:28;14.27;;;2.70;;
58528;SDS011;44322;52.968;5.816;2022-12-29T08:18:53;18.70;;;3.40;;
58528;SDS011;44322;52.968;5.816;2022-12-29T08:21:19;18.35;;;3.80;;
58528;SDS011;44322;52.968;5.816;2022-12-29T08:23:48;22.45;;;3.38;;
58528;SDS011;44322;52.968;5.816;2022-12-29T08:26:13;14.77;;;3.42;;
58528;SDS011;44322;52.968;5.816;2022-12-29T08:28:39;18.92;;;3.30;;
58528;SDS011;44322;52.968;5.816;2022-12-29T08:31:14;14.60;;;3.50;;
58528;SDS011;44322;52.968;5.816;2022-12-29T08:33:39;20.73;;;3.92;;
58528;SDS011;44322;52.968;5.816;2022-12-29T08:36:08;19.77;;;4.32;;
58528;SDS011;44322;52.968;5.816;2022-12-29T08:38:34;14.60;;;3.22;;
58528;SDS011;44322;52.968;5.816;2022-12-29T08:41:00;19.73;;;3.67;;
58528;SDS011;44322;52.968;5.816;2022-12-29T08:43:36;16.90;;;3.28;;
58528;SDS011;44322;52.968;5.816;2022-12-29T08:46:02;13.90;;;2.92;;
58528;SDS011;44322;52.968;5.816;2022-12-29T08:48:27;17.30;;;3.30;;
58528;SDS011;44322;52.968;5.816;2022-12-29T08:50:53;20.55;;;3.72;;
58528;SDS011;44322;52.968;5.816;2022-12-29T08:53:19;19.02;;;3.53;;
58528;SDS011;44322;52.968;5.816;2022-12-29T08:55:45;19.55;;;3.25;;
58528;SDS011;44322;52.968;5.816;2022-12-29T08:58:19;22.25;;;4.07;;
58528;SDS011;44322;52.968;5.816;2022-12-29T09:00:44;16.70;;;3.65;;
58528;SDS011;44322;52.968;5.816;2022-12-29T09:03:10;19.88;;;3.58;;
58528;SDS011;44322;52.968;5.816;2022-12-29T09:05:42;13.15;;;3.50;;
58528;SDS011;44322;52.968;5.816;2022-12-29T09:08:08;19.15;;;3.45;;
58528;SDS011;44322;52.968;5.816;2022-12-29T09:10:33;18.13;;;3.25;;
58528;SDS011;44322;52.968;5.816;2022-12-29T09:12:59;14.27;;;2.75;;
58528;SDS011;44322;52.968;5.816;2022-12-29T09:15:24;15.88;;;3.28;;
58528;SDS011;44322;52.968;5.816;2022-12-29T09:17:50;13.50;;;2.97;;
58528;SDS011;44322;52.968;5.816;2022-12-29T09:20:16;13.45;;;2.83;;
58528;SDS011;44322;52.968;5.816;2022-12-29T09:22:43;10.20;;;3.03;;
58528;SDS011;44322;52.968;5.816;2022-12-29T09:25:10;15.43;;;3.13;;
58528;SDS011;44322;52.968;5.816;2022-12-29T09:27:36;9.98;;;2.92;;
58528;SDS011;44322;52.968;5.816;2022-12-29T09:32:54;11.80;;;3.17;;
58528;SDS011;44322;52.968;5.816;2022-12-29T09:35:19;14.07;;;2.33;;
58528;SDS011;44322;52.968;5.816;2022-12-29T09:37:45;13.23;;;2.92;;
58528;SDS011;44322;52.968;5.816;2022-12-29T09:40:24;13.73;;;2.72;;
58528;SDS011;44322;52.968;5.816;2022-12-29T09:48:31;16.95;;;3.28;;
58528;SDS011;44322;52.968;5.816;2022-12-29T09:51:00;14.98;;;3.38;;
58528;SDS011;44322;52.968;5.816;2022-12-29T09:56:21;13.80;;;2.92;;
58528;SDS011;44322;52.968;5.816;2022-12-29T09:58:50;13.35;;;3.33;;
58528;SDS011;44322;52.968;5.816;2022-12-29T10:04:21;15.57;;;3.10;;
58528;SDS011;44322;52.968;5.816;2022-12-29T10:12:40;15.23;;;3.65;;
58528;SDS011;44322;52.968;5.816;2022-12-29T10:15:38;14.40;;;3.05;;
58528;SDS011;44322;52.968;5.816;2022-12-29T10:18:14;16.45;;;3.80;;
58528;SDS011;44322;52.968;5.816;2022-12-29T10:23:35;19.35;;;3.40;;
58528;SDS011;44322;52.968;5.816;2022-12-29T10:26:17;17.52;;;3.40;;
58528;SDS011;44322;52.968;5.816;2022-12-29T10:28:51;14.48;;;3.22;;
58528;SDS011;44322;52.968;5.816;2022-12-29T10:31:20;20.88;;;3.78;;
58528;SDS011;44322;52.968;5.816;2022-12-29T10:33:51;16.73;;;3.47;;
58528;SDS011;44322;52.968;5.816;2022-12-29T10:36:24;17.45;;;3.53;;
58528;SDS011;44322;52.968;5.816;2022-12-29T10:39:19;24.33;;;4.68;;
58528;SDS011;44322;52.968;5.816;2022-12-29T10:42:09;19.73;;;4.15;;
58528;SDS011;44322;52.968;5.816;2022-12-29T10:44:35;23.02;;;4.35;;
58528;SDS011;44322;52.968;5.816;2022-12-29T10:47:08;20.48;;;4.40;;
58528;SDS011;44322;52.968;5.816;2022-12-29T10:49:40;20.48;;;4.35;;
58528;SDS011;44322;52.968;5.816;2022-12-29T10:52:08;20.42;;;4.25;;
58528;SDS011;44322;52.968;5.816;2022-12-29T10:54:57;25.50;;;4.63;;
58528;SDS011;44322;52.968;5.816;2022-12-29T10:57:38;22.88;;;4.45;;
58528;SDS011;44322;52.968;5.816;2022-12-29T11:00:19;17.73;;;4.20;;
58528;SDS011;44322;52.968;5.816;2022-12-29T11:06:21;25.02;;;4.38;;
58528;SDS011;44322;52.968;5.816;2022-12-29T11:08:55;23.60;;;4.13;;
58528;SDS011;44322;52.968;5.816;2022-12-29T11:11:25;20.45;;;3.85;;
58528;SDS011;44322;52.968;5.816;2022-12-29T11:13:56;21.08;;;3.95;;
58528;SDS011;44322;52.968;5.816;2022-12-29T11:16:37;18.95;;;3.97;;
58528;SDS011;44322;52.968;5.816;2022-12-29T11:19:03;26.63;;;4.35;;
58528;SDS011;44322;52.968;5.816;2022-12-29T11:21:38;22.83;;;4.40;;
58528;SDS011;44322;52.968;5.816;2022-12-29T11:24:14;18.40;;;3.92;;
58528;SDS011;44322;52.968;5.816;2022-12-29T11:26:44;22.88;;;3.80;;
58528;SDS011;44322;52.968;5.816;2022-12-29T11:31:49;15.77;;;3.22;;
58528;SDS011;44322;52.968;5.816;2022-12-29T11:34:21;18.30;;;3.25;;
58528;SDS011;44322;52.968;5.816;2022-12-29T11:36:48;14.15;;;3.65;;
58528;SDS011;44322;52.968;5.816;2022-12-29T11:39:37;17.48;;;3.55;;
58528;SDS011;44322;52.968;5.816;2022-12-29T11:42:17;17.60;;;3.10;;
58528;SDS011;44322;52.968;5.816;2022-12-29T11:44:51;10.40;;;2.47;;
58528;SDS011;44322;52.968;5.816;2022-12-29T11:47:26;13.18;;;2.60;;
58528;SDS011;44322;52.968;5.816;2022-12-29T11:49:59;17.67;;;2.85;;
58528;SDS011;44322;52.968;5.816;2022-12-29T11:52:39;12.18;;;2.90;;
58528;SDS011;44322;52.968;5.816;2022-12-29T11:55:16;13.30;;;2.92;;
58528;SDS011;44322;52.968;5.816;2022-12-29T11:57:44;11.60;;;2.55;;
58528;SDS011;44322;52.968;5.816;2022-12-29T12:00:20;8.48;;;1.95;;
58528;SDS011;44322;52.968;5.816;2022-12-29T12:02:51;9.93;;;2.13;;
58528;SDS011;44322;52.968;5.816;2022-12-29T12:05:24;10.82;;;2.20;;
58528;SDS011;44322;52.968;5.816;2022-12-29T12:08:10;12.60;;;1.98;;
58528;SDS011;44322;52.968;5.816;2022-12-29T12:11:23;13.35;;;2.03;;
58528;SDS011;44322;52.968;5.816;2022-12-29T12:17:16;10.35;;;1.70;;
58528;SDS011;44322;52.968;5.816;2022-12-29T12:19:57;11.65;;;2.00;;
58528;SDS011;44322;52.968;5.816;2022-12-29T12:22:38;13.20;;;2.20;;
58528;SDS011;44322;52.968;5.816;2022-12-29T12:27:48;9.80;;;1.83;;
58528;SDS011;44322;52.968;5.816;2022-12-29T12:30:21;8.35;;;2.08;;
58528;SDS011;44322;52.968;5.816;2022-12-29T12:32:51;8.27;;;2.45;;
58528;SDS011;44322;52.968;5.816;2022-12-29T12:59:45;11.55;;;1.90;;
58528;SDS011;44322;52.968;5.816;2022-12-29T13:10:54;10.90;;;2.13;;
58528;SDS011;44322;52.968;5.816;2022-12-29T13:18:59;8.15;;;2.20;;
58528;SDS011;44322;52.968;5.816;2022-12-29T13:24:19;9.13;;;1.70;;
58528;SDS011;44322;52.968;5.816;2022-12-29T13:26:50;10.57;;;1.75;;
58528;SDS011;44322;52.968;5.816;2022-12-29T13:30:03;14.45;;;2.40;;
58528;SDS011;44322;52.968;5.816;2022-12-29T13:37:39;11.55;;;1.90;;
58528;SDS011;44322;52.968;5.816;2022-12-29T13:40:16;12.75;;;2.05;;
58528;SDS011;44322;52.968;5.816;2022-12-29T13:42:44;11.98;;;1.95;;
58528;SDS011;44322;52.968;5.816;2022-12-29T13:45:13;11.23;;;2.17;;
58528;SDS011;44322;52.968;5.816;2022-12-29T13:47:40;5.82;;;1.90;;
58528;SDS011;44322;52.968;5.816;2022-12-29T13:50:17;12.50;;;2.22;;
58528;SDS011;44322;52.968;5.816;2022-12-29T13:53:00;11.15;;;2.50;;
58528;SDS011;44322;52.968;5.816;2022-12-29T13:58:05;14.40;;;2.30;;
58528;SDS011;44322;52.968;5.816;2022-12-29T14:00:49;10.68;;;2.55;;
58528;SDS011;44322;52.968;5.816;2022-12-29T14:06:30;11.38;;;2.85;;
58528;SDS011;44322;52.968;5.816;2022-12-29T14:09:00;12.57;;;2.55;;
58528;SDS011;44322;52.968;5.816;2022-12-29T14:11:32;8.63;;;2.35;;
58528;SDS011;44322;52.968;5.816;2022-12-29T14:14:12;14.43;;;2.67;;
58528;SDS011;44322;52.968;5.816;2022-12-29T14:16:42;16.42;;;2.80;;
58528;SDS011;44322;52.968;5.816;2022-12-29T14:21:38;15.20;;;2.95;;
58528;SDS011;44322;52.968;5.816;2022-12-29T14:24:26;11.65;;;2.10;;
58528;SDS011;44322;52.968;5.816;2022-12-29T14:34:50;11.55;;;2.33;;
58528;SDS011;44322;52.968;5.816;2022-12-29T14:42:49;14.05;;;2.47;;
58528;SDS011;44322;52.968;5.816;2022-12-29T14:50:15;10.30;;;2.63;;
58528;SDS011;44322;52.968;5.816;2022-12-29T14:52:48;11.02;;;2.22;;
58528;SDS011;44322;52.968;5.816;2022-12-29T14:57:43;8.77;;;2.33;;
58528;SDS011;44322;52.968;5.816;2022-12-29T15:08:12;16.08;;;2.70;;
58528;SDS011;44322;52.968;5.816;2022-12-29T15:11:00;12.13;;;2.65;;
58528;SDS011;44322;52.968;5.816;2022-12-29T15:13:44;14.43;;;2.50;;
58528;SDS011;44322;52.968;5.816;2022-12-29T15:18:54;14.85;;;3.47;;
58528;SDS011;44322;52.968;5.816;2022-12-29T15:21:25;11.45;;;2.83;;
58528;SDS011;44322;52.968;5.816;2022-12-29T15:24:00;10.95;;;2.83;;
58528;SDS011;44322;52.968;5.816;2022-12-29T15:26:37;14.30;;;3.13;;
58528;SDS011;44322;52.968;5.816;2022-12-29T15:29:04;13.27;;;3.17;;
58528;SDS011;44322;52.968;5.816;2022-12-29T15:31:30;15.48;;;3.80;;
58528;SDS011;44322;52.968;5.816;2022-12-29T15:34:09;16.42;;;2.97;;
58528;SDS011;44322;52.968;5.816;2022-12-29T15:36:39;14.95;;;3.13;;
58528;SDS011;44322;52.968;5.816;2022-12-29T15:39:23;12.85;;;3.05;;
58528;SDS011;44322;52.968;5.816;2022-12-29T15:41:55;15.13;;;3.10;;
58528;SDS011;44322;52.968;5.816;2022-12-29T15:44:26;13.60;;;3.60;;
58528;SDS011;44322;52.968;5.816;2022-12-29T15:46:55;16.23;;;3.15;;
58528;SDS011;44322;52.968;5.816;2022-12-29T15:49:21;12.02;;;3.20;;
58528;SDS011;44322;52.968;5.816;2022-12-29T15:51:49;9.15;;;2.05;;
58528;SDS011;44322;52.968;5.816;2022-12-29T15:54:18;11.73;;;2.13;;
58528;SDS011;44322;52.968;5.816;2022-12-29T15:56:45;7.55;;;2.03;;
58528;SDS011;44322;52.968;5.816;2022-12-29T15:59:28;10.20;;;2.25;;
58528;SDS011;44322;52.968;5.816;2022-12-29T16:01:55;7.78;;;2.35;;
58528;SDS011;44322;52.968;5.816;2022-12-29T16:04:21;9.60;;;2.35;;
58528;SDS011;44322;52.968;5.816;2022-12-29T16:06:56;8.02;;;2.17;;
58528;SDS011;44322;52.968;5.816;2022-12-29T16:09:30;9.85;;;3.33;;
58528;SDS011;44322;52.968;5.816;2022-12-29T16:11:58;11.82;;;2.70;;
58528;SDS011;44322;52.968;5.816;2022-12-29T16:16:57;13.68;;;3.63;;
58528;SDS011;44322;52.968;5.816;2022-12-29T16:19:29;9.73;;;2.85;;
58528;SDS011;44322;52.968;5.816;2022-12-29T16:21:57;8.43;;;2.63;;
58528;SDS011;44322;52.968;5.816;2022-12-29T16:24:24;13.57;;;2.60;;
58528;SDS011;44322;52.968;5.816;2022-12-29T16:26:55;11.77;;;2.90;;
58528;SDS011;44322;52.968;5.816;2022-12-29T16:29:25;11.77;;;2.63;;
58528;SDS011;44322;52.968;5.816;2022-12-29T16:31:52;19.00;;;3.53;;
58528;SDS011;44322;52.968;5.816;2022-12-29T16:39:39;14.50;;;2.70;;
58528;SDS011;44322;52.968;5.816;2022-12-29T16:45:31;13.05;;;2.70;;
58528;SDS011;44322;52.968;5.816;2022-12-29T16:48:23;16.75;;;4.13;;
58528;SDS011;44322;52.968;5.816;2022-12-29T16:50:51;17.58;;;3.47;;
58528;SDS011;44322;52.968;5.816;2022-12-29T16:53:31;15.38;;;3.20;;
58528;SDS011;44322;52.968;5.816;2022-12-29T16:56:02;15.98;;;3.90;;
58528;SDS011;44322;52.968;5.816;2022-12-29T16:58:31;18.38;;;3.35;;
58528;SDS011;44322;52.968;5.816;2022-12-29T17:00:58;14.70;;;3.45;;
58528;SDS011;44322;52.968;5.816;2022-12-29T17:03:28;16.80;;;3.42;;
58528;SDS011;44322;52.968;5.816;2022-12-29T17:06:19;18.80;;;4.03;;
58528;SDS011;44322;52.968;5.816;2022-12-29T17:08:46;17.33;;;3.42;;
58528;SDS011;44322;52.968;5.816;2022-12-29T17:11:20;14.27;;;3.70;;
58528;SDS011;44322;52.968;5.816;2022-12-29T17:14:52;18.35;;;3.92;;
58528;SDS011;44322;52.968;5.816;2022-12-29T17:17:00;16.58;;;3.25;;
58528;SDS011;44322;52.968;5.816;2022-12-29T17:19:30;20.05;;;3.75;;
58528;SDS011;44322;52.968;5.816;2022-12-29T17:21:59;16.02;;;3.40;;
58528;SDS011;44322;52.968;5.816;2022-12-29T17:24:26;20.58;;;4.43;;
58528;SDS011;44322;52.968;5.816;2022-12-29T17:26:52;16.25;;;3.80;;
58528;SDS011;44322;52.968;5.816;2022-12-29T17:29:28;23.55;;;4.25;;
58528;SDS011;44322;52.968;5.816;2022-12-29T17:31:56;18.02;;;3.85;;
58528;SDS011;44322;52.968;5.816;2022-12-29T17:34:22;17.77;;;3.83;;
58528;SDS011;44322;52.968;5.816;2022-12-29T17:36:48;27.38;;;4.50;;
58528;SDS011;44322;52.968;5.816;2022-12-29T17:39:14;20.80;;;7.55;;
58528;SDS011;44322;52.968;5.816;2022-12-29T17:41:39;16.52;;;3.78;;
58528;SDS011;44322;52.968;5.816;2022-12-29T17:44:05;20.50;;;4.20;;
58528;SDS011;44322;52.968;5.816;2022-12-29T17:46:31;18.00;;;4.05;;
58528;SDS011;44322;52.968;5.816;2022-12-29T17:48:57;19.90;;;3.97;;
58528;SDS011;44322;52.968;5.816;2022-12-29T17:51:23;18.42;;;4.20;;
58528;SDS011;44322;52.968;5.816;2022-12-29T17:53:49;16.70;;;4.53;;
58528;SDS011;44322;52.968;5.816;2022-12-29T17:56:16;16.05;;;4.00;;
58528;SDS011;44322;52.968;5.816;2022-12-29T17:58:42;30.58;;;6.50;;
58528;SDS011;44322;52.968;5.816;2022-12-29T18:01:08;20.83;;;5.65;;